createdAt,value
2017-01-26T00:00:14.116Z,0
2017-01-26T00:01:14.055Z,0
2017-01-26T00:02:14.017Z,0
2017-01-26T00:03:14.109Z,0
2017-01-26T00:04:14.175Z,0
2017-01-26T00:05:14.078Z,0
2017-01-26T00:06:14.122Z,0
2017-01-26T00:07:14.027Z,0
2017-01-26T00:08:14.123Z,0
2017-01-26T00:09:14.128Z,0
2017-01-26T00:10:14.048Z,0
2017-01-26T00:11:14.026Z,0
2017-01-26T00:12:14.047Z,0
2017-01-26T00:13:15.249Z,0
2017-01-26T00:14:14.039Z,0
2017-01-26T00:15:14.558Z,0
2017-01-26T00:16:14.178Z,0
2017-01-26T00:17:14.061Z,0
2017-01-26T00:18:14.074Z,0
2017-01-26T00:19:14.395Z,0
2017-01-26T00:20:14.040Z,0
2017-01-26T00:21:14.142Z,0
2017-01-26T00:22:14.054Z,0
2017-01-26T00:23:14.465Z,0
2017-01-26T00:24:14.518Z,0
2017-01-26T00:25:14.044Z,0
2017-01-26T00:26:14.310Z,0
2017-01-26T00:27:14.028Z,0
2017-01-26T00:28:14.102Z,0
2017-01-26T00:29:14.079Z,0
2017-01-26T00:30:14.233Z,0
2017-01-26T00:37:42.489Z,0
2017-01-26T00:37:52.597Z,0
2017-01-26T00:38:52.523Z,0
2017-01-26T00:39:52.729Z,0
2017-01-26T00:40:52.490Z,0
2017-01-26T00:41:52.532Z,0
2017-01-26T00:42:52.800Z,0
2017-01-26T00:43:52.659Z,0
2017-01-26T00:44:52.532Z,0
2017-01-26T00:45:52.585Z,0
2017-01-26T00:46:52.683Z,0
2017-01-26T00:47:52.477Z,0
2017-01-26T00:48:52.534Z,0
2017-01-26T00:49:52.497Z,0
2017-01-26T00:50:52.662Z,0
2017-01-26T00:51:52.498Z,0
2017-01-26T00:52:52.512Z,0
2017-01-26T00:53:52.541Z,0
2017-01-26T00:54:52.501Z,0
2017-01-26T00:55:52.638Z,0
2017-01-26T00:56:52.502Z,0
2017-01-26T00:57:52.559Z,0
2017-01-26T00:58:52.508Z,0
2017-01-26T00:59:52.529Z,0
2017-01-26T01:00:52.536Z,0
2017-01-26T01:01:52.490Z,0
2017-01-26T01:02:52.520Z,0
2017-01-26T01:03:52.774Z,0
2017-01-26T01:04:52.499Z,0
2017-01-26T01:05:52.505Z,0
2017-01-26T01:06:52.525Z,0
2017-01-26T01:07:52.552Z,0
2017-01-26T01:08:52.511Z,0
2017-01-26T01:09:52.573Z,0
2017-01-26T01:10:52.876Z,0
2017-01-26T01:11:52.573Z,0
2017-01-26T01:12:52.507Z,0
2017-01-26T01:13:52.558Z,0
2017-01-26T01:14:52.595Z,0
2017-01-26T01:15:52.601Z,0
2017-01-26T01:16:53.708Z,0
2017-01-26T01:17:52.525Z,0
2017-01-26T01:18:52.510Z,0
2017-01-26T01:19:52.804Z,0
2017-01-26T01:20:52.526Z,0
2017-01-26T01:21:52.803Z,0
2017-01-26T01:22:52.539Z,0
2017-01-26T01:23:52.546Z,0
2017-01-26T01:24:52.522Z,0
2017-01-26T01:25:52.656Z,0
2017-01-26T01:26:52.529Z,0
2017-01-26T01:27:52.966Z,0
2017-01-26T01:28:52.534Z,0
2017-01-26T01:29:52.522Z,0
2017-01-26T01:30:52.607Z,0
2017-01-26T01:31:52.622Z,0
2017-01-26T01:32:52.602Z,0
2017-01-26T01:33:52.521Z,0
2017-01-26T01:34:52.682Z,0
2017-01-26T01:35:52.570Z,0
2017-01-26T01:36:52.586Z,0
2017-01-26T01:37:53.278Z,0
2017-01-26T01:38:52.529Z,0
2017-01-26T01:39:52.580Z,0
2017-01-26T01:40:52.577Z,0
2017-01-26T01:41:52.605Z,0
2017-01-26T01:42:52.905Z,0
2017-01-26T01:43:52.614Z,0
2017-01-26T01:44:54.143Z,0
2017-01-26T01:45:52.543Z,0
2017-01-26T01:46:52.679Z,0
2017-01-26T01:47:53.194Z,0
2017-01-26T01:48:52.562Z,0
2017-01-26T01:49:52.665Z,0
2017-01-26T01:50:52.545Z,0
2017-01-26T01:51:52.692Z,0
2017-01-26T01:52:52.662Z,0
2017-01-26T01:53:52.686Z,0
2017-01-26T01:54:52.555Z,0
2017-01-26T01:55:52.536Z,0
2017-01-26T01:56:52.840Z,0
2017-01-26T01:57:52.711Z,0
2017-01-26T01:58:52.583Z,0
2017-01-26T01:59:52.593Z,0
2017-01-26T02:00:52.752Z,0
2017-01-26T02:01:52.628Z,0
2017-01-26T02:02:52.550Z,0
2017-01-26T02:03:52.545Z,0
2017-01-26T02:04:52.635Z,0
2017-01-26T02:05:52.801Z,0
2017-01-26T02:06:52.563Z,0
2017-01-26T02:07:52.700Z,0
2017-01-26T02:08:52.580Z,0
2017-01-26T02:09:52.651Z,0
2017-01-26T02:10:52.590Z,0
2017-01-26T02:11:52.589Z,0
2017-01-26T02:12:52.580Z,0
2017-01-26T02:13:52.549Z,0
2017-01-26T02:14:52.577Z,0
2017-01-26T02:15:52.594Z,0
2017-01-26T02:16:52.554Z,0
2017-01-26T02:17:52.562Z,0
2017-01-26T02:18:52.753Z,0
2017-01-26T02:19:52.545Z,0
2017-01-26T02:20:52.603Z,0
2017-01-26T02:21:52.574Z,0
2017-01-26T02:22:53.545Z,0
2017-01-26T02:23:52.591Z,0
2017-01-26T02:24:53.475Z,0
2017-01-26T02:25:52.762Z,0
2017-01-26T02:26:52.582Z,0
2017-01-26T02:27:52.573Z,0
2017-01-26T02:28:52.651Z,0
2017-01-26T02:29:52.679Z,0
2017-01-26T02:30:52.550Z,0
2017-01-26T02:31:52.595Z,0
2017-01-26T02:32:52.576Z,0
2017-01-26T02:33:52.550Z,0
2017-01-26T02:34:52.936Z,0
2017-01-26T02:35:52.685Z,0
2017-01-26T02:36:52.538Z,0
2017-01-26T02:37:52.563Z,0
2017-01-26T02:38:52.645Z,0
2017-01-26T02:39:52.577Z,0
2017-01-26T02:40:52.731Z,0
2017-01-26T02:41:52.714Z,0
2017-01-26T02:42:52.596Z,0
2017-01-26T02:43:52.553Z,0
2017-01-26T02:44:52.861Z,0
2017-01-26T02:45:52.542Z,0
2017-01-26T02:46:53.359Z,0
2017-01-26T02:47:52.746Z,0
2017-01-26T02:48:52.553Z,0
2017-01-26T02:49:52.607Z,0
2017-01-26T02:50:52.808Z,0
2017-01-26T02:51:52.566Z,0
2017-01-26T02:52:52.679Z,0
2017-01-26T02:53:52.581Z,0
2017-01-26T02:54:52.587Z,0
2017-01-26T02:55:52.575Z,0
2017-01-26T02:56:52.575Z,0
2017-01-26T02:57:52.721Z,0
2017-01-26T02:58:52.744Z,0
2017-01-26T02:59:52.697Z,0
2017-01-26T03:00:52.569Z,0
2017-01-26T03:01:53.013Z,0
2017-01-26T03:02:52.600Z,0
2017-01-26T03:03:52.935Z,0
2017-01-26T03:04:53.654Z,0
2017-01-26T03:05:53.079Z,0
2017-01-26T03:06:52.583Z,0
2017-01-26T03:07:52.722Z,0
2017-01-26T03:08:52.829Z,0
2017-01-26T03:09:52.819Z,0
2017-01-26T03:10:52.880Z,0
2017-01-26T03:11:52.587Z,0
2017-01-26T03:12:52.576Z,0
2017-01-26T03:13:52.562Z,0
2017-01-26T03:14:52.620Z,0
2017-01-26T03:15:52.619Z,0
2017-01-26T03:16:52.582Z,0
2017-01-26T03:17:52.571Z,0
2017-01-26T03:18:52.638Z,0
2017-01-26T03:19:52.683Z,0
2017-01-26T03:20:52.636Z,0
2017-01-26T03:21:52.664Z,0
2017-01-26T03:22:52.632Z,0
2017-01-26T03:23:52.707Z,0
2017-01-26T03:24:52.659Z,0
2017-01-26T03:25:52.827Z,0
2017-01-26T03:26:53.301Z,0
2017-01-26T03:27:52.616Z,0
2017-01-26T03:28:52.609Z,0
2017-01-26T03:29:52.595Z,0
2017-01-26T03:30:52.580Z,0
2017-01-26T03:31:52.614Z,0
2017-01-26T03:32:52.642Z,0
2017-01-26T03:33:52.744Z,0
2017-01-26T03:34:52.591Z,0
2017-01-26T03:35:52.615Z,0
2017-01-26T03:36:52.627Z,0
2017-01-26T03:37:52.632Z,0
2017-01-26T03:38:52.623Z,0
2017-01-26T03:39:52.587Z,0
2017-01-26T03:40:52.721Z,0
2017-01-26T03:41:52.600Z,0
2017-01-26T03:42:52.604Z,0
2017-01-26T03:43:52.594Z,0
2017-01-26T03:44:52.607Z,0
2017-01-26T03:45:52.596Z,0
2017-01-26T03:46:52.594Z,0
2017-01-26T03:47:52.624Z,0
2017-01-26T03:48:52.616Z,0
2017-01-26T03:49:52.647Z,0
2017-01-26T03:50:52.612Z,0
2017-01-26T03:51:52.633Z,0
2017-01-26T03:52:52.617Z,0
2017-01-26T03:53:52.617Z,0
2017-01-26T03:54:52.623Z,0
2017-01-26T03:55:52.656Z,0
2017-01-26T03:56:52.662Z,0
2017-01-26T03:57:52.613Z,0
2017-01-26T03:58:52.646Z,0
2017-01-26T03:59:52.636Z,0
2017-01-26T04:00:52.710Z,0
2017-01-26T04:01:52.610Z,0
2017-01-26T04:02:52.599Z,0
2017-01-26T04:03:52.627Z,0
2017-01-26T04:04:52.617Z,0
2017-01-26T04:05:52.641Z,0
2017-01-26T04:06:52.637Z,0
2017-01-26T04:07:52.642Z,0
2017-01-26T04:08:52.618Z,0
2017-01-26T04:09:52.614Z,0
2017-01-26T04:10:52.617Z,0
2017-01-26T04:11:52.641Z,0
2017-01-26T04:12:52.653Z,0
2017-01-26T04:13:52.605Z,0
2017-01-26T04:14:52.618Z,0
2017-01-26T04:15:52.653Z,0
2017-01-26T04:16:52.644Z,0
2017-01-26T04:17:52.632Z,0
2017-01-26T04:18:52.628Z,0
2017-01-26T04:19:52.666Z,0
2017-01-26T04:20:52.701Z,0
2017-01-26T04:21:52.683Z,0
2017-01-26T04:22:52.621Z,0
2017-01-26T04:23:52.669Z,0
2017-01-26T04:24:52.613Z,0
2017-01-26T04:25:52.633Z,0
2017-01-26T04:26:52.616Z,0
2017-01-26T04:27:52.670Z,0
2017-01-26T04:28:52.620Z,0
2017-01-26T04:29:52.627Z,0
2017-01-26T04:30:52.624Z,0
2017-01-26T04:31:52.638Z,0
2017-01-26T04:32:52.651Z,0
2017-01-26T04:33:52.606Z,0
2017-01-26T04:34:52.647Z,0
2017-01-26T04:35:52.627Z,0
2017-01-26T04:36:52.664Z,0
2017-01-26T04:37:52.637Z,0
2017-01-26T04:38:52.704Z,0
2017-01-26T04:39:52.622Z,0
2017-01-26T04:40:53.310Z,0
2017-01-26T04:41:52.646Z,0
2017-01-26T04:42:52.617Z,0
2017-01-26T04:43:52.616Z,0
2017-01-26T04:44:52.609Z,0
2017-01-26T04:45:52.670Z,0
2017-01-26T04:46:52.636Z,0
2017-01-26T04:47:52.657Z,0
2017-01-26T04:48:52.633Z,0
2017-01-26T04:49:52.620Z,0
2017-01-26T04:50:52.622Z,0
2017-01-26T04:51:52.640Z,0
2017-01-26T04:52:52.636Z,0
2017-01-26T04:53:52.672Z,0
2017-01-26T04:54:52.660Z,0
2017-01-26T04:55:52.637Z,0
2017-01-26T04:56:52.630Z,0
2017-01-26T04:57:52.610Z,0
2017-01-26T04:58:52.644Z,0
2017-01-26T04:59:52.642Z,0
2017-01-26T05:00:52.648Z,0
2017-01-26T05:01:52.636Z,0
2017-01-26T05:02:52.666Z,0
2017-01-26T05:03:52.681Z,0
2017-01-26T05:04:52.649Z,0
2017-01-26T05:05:52.683Z,0
2017-01-26T05:06:52.745Z,0
2017-01-26T05:07:52.683Z,0
2017-01-26T05:08:52.673Z,0
2017-01-26T05:09:52.684Z,0
2017-01-26T05:10:52.650Z,0
2017-01-26T05:11:52.657Z,0
2017-01-26T05:12:52.695Z,0
2017-01-26T05:13:52.672Z,0
2017-01-26T05:14:52.786Z,0
2017-01-26T05:15:52.658Z,0
2017-01-26T05:16:52.677Z,0
2017-01-26T05:17:52.659Z,0
2017-01-26T05:18:52.648Z,0
2017-01-26T05:19:52.688Z,0
2017-01-26T05:20:52.676Z,0
2017-01-26T05:21:52.669Z,0
2017-01-26T05:22:52.681Z,0
2017-01-26T05:23:52.658Z,0
2017-01-26T05:24:52.690Z,0
2017-01-26T05:25:52.668Z,0
2017-01-26T05:26:52.686Z,0
2017-01-26T05:27:52.649Z,0
2017-01-26T05:28:52.656Z,0
2017-01-26T05:29:52.661Z,0
2017-01-26T05:30:52.651Z,0
2017-01-26T05:31:52.692Z,0
2017-01-26T05:32:52.739Z,0
2017-01-26T05:33:52.677Z,0
2017-01-26T05:34:52.757Z,0
2017-01-26T05:35:52.680Z,0
2017-01-26T05:36:52.666Z,0
2017-01-26T05:37:52.751Z,0
2017-01-26T05:38:52.670Z,0
2017-01-26T05:39:52.665Z,0
2017-01-26T05:40:52.704Z,0
2017-01-26T05:41:52.689Z,0
2017-01-26T05:42:52.647Z,0
2017-01-26T05:43:52.648Z,0
2017-01-26T05:44:52.688Z,0
2017-01-26T05:45:52.698Z,0
2017-01-26T05:46:52.682Z,0
2017-01-26T05:47:52.727Z,0
2017-01-26T05:48:52.688Z,0
2017-01-26T05:49:52.669Z,0
2017-01-26T05:50:52.738Z,0
2017-01-26T05:51:52.707Z,0
2017-01-26T05:52:52.691Z,0
2017-01-26T05:53:52.694Z,0
2017-01-26T05:54:52.682Z,0
2017-01-26T05:55:52.701Z,0
2017-01-26T05:56:52.714Z,0
2017-01-26T05:57:52.695Z,0
2017-01-26T05:58:52.684Z,0
2017-01-26T05:59:52.707Z,0
2017-01-26T06:00:52.707Z,0
2017-01-26T06:01:52.678Z,0
2017-01-26T06:02:52.668Z,0
2017-01-26T06:03:52.689Z,0
2017-01-26T06:04:52.694Z,0
2017-01-26T06:05:52.725Z,0
2017-01-26T06:06:52.696Z,0
2017-01-26T06:07:52.717Z,0
2017-01-26T06:08:52.695Z,0
2017-01-26T06:09:52.689Z,0
2017-01-26T06:10:52.752Z,0
2017-01-26T06:11:52.728Z,0
2017-01-26T06:12:52.753Z,0
2017-01-26T06:13:52.723Z,0
2017-01-26T06:14:52.712Z,0
2017-01-26T06:15:52.716Z,0
2017-01-26T06:16:52.714Z,0
2017-01-26T06:17:52.762Z,0
2017-01-26T06:18:52.675Z,0
2017-01-26T06:19:52.690Z,0
2017-01-26T06:20:52.720Z,0
2017-01-26T06:26:09.543Z,0
2017-01-26T06:26:19.528Z,0
2017-01-26T06:27:19.559Z,0
2017-01-26T06:28:19.579Z,0
2017-01-26T06:29:19.572Z,0
2017-01-26T06:30:19.550Z,0
2017-01-26T06:31:19.585Z,0
2017-01-26T06:32:19.540Z,0
2017-01-26T06:33:19.567Z,0
2017-01-26T06:34:19.570Z,0
2017-01-26T06:35:19.554Z,0
2017-01-26T06:36:19.545Z,0
2017-01-26T06:37:19.567Z,0
2017-01-26T06:38:19.616Z,0
2017-01-26T06:39:19.566Z,0
2017-01-26T06:40:19.579Z,0
2017-01-26T06:41:19.552Z,0
2017-01-26T06:42:19.560Z,0
2017-01-26T06:43:19.576Z,0
2017-01-26T06:44:19.572Z,0
2017-01-26T06:45:19.644Z,0
2017-01-26T06:46:19.605Z,0
2017-01-26T06:47:19.606Z,0
2017-01-26T06:48:20.555Z,0
2017-01-26T06:49:19.682Z,0
2017-01-26T06:50:19.628Z,0
2017-01-26T06:51:19.566Z,0
2017-01-26T06:52:19.619Z,0
2017-01-26T06:53:19.580Z,0
2017-01-26T06:54:19.596Z,0
2017-01-26T06:55:19.606Z,0
2017-01-26T06:56:19.627Z,0
2017-01-26T06:57:19.620Z,0
2017-01-26T06:58:19.570Z,0
2017-01-26T06:59:19.959Z,0
2017-01-26T07:00:19.641Z,0
2017-01-26T07:01:19.622Z,0
2017-01-26T07:02:19.578Z,0
2017-01-26T07:03:19.566Z,0
2017-01-26T07:04:19.983Z,0
2017-01-26T07:05:19.691Z,0
2017-01-26T07:06:19.636Z,0
2017-01-26T07:07:19.588Z,0
2017-01-26T07:08:19.586Z,0
2017-01-26T07:09:19.592Z,0
2017-01-26T07:10:19.653Z,0
2017-01-26T07:11:19.577Z,0
2017-01-26T07:12:19.599Z,0
2017-01-26T07:13:19.611Z,5
2017-01-26T07:14:19.618Z,5
2017-01-26T07:15:19.610Z,5
2017-01-26T07:16:19.599Z,5
2017-01-26T07:17:19.618Z,5
2017-01-26T07:18:19.612Z,5
2017-01-26T07:19:19.640Z,5
2017-01-26T07:20:19.645Z,5
2017-01-26T07:21:19.636Z,5
2017-01-26T07:22:19.601Z,10
2017-01-26T07:23:19.613Z,10
2017-01-26T07:24:19.596Z,10
2017-01-26T07:25:19.599Z,10
2017-01-26T07:26:19.624Z,10
2017-01-26T07:27:19.601Z,10
2017-01-26T07:28:19.625Z,10
2017-01-26T07:29:19.603Z,15
2017-01-26T07:30:19.651Z,15
2017-01-26T07:31:19.594Z,15
2017-01-26T07:32:19.601Z,15
2017-01-26T07:33:19.613Z,15
2017-01-26T07:34:19.631Z,15
2017-01-26T07:35:19.687Z,20
2017-01-26T07:36:19.580Z,20
2017-01-26T07:37:19.664Z,20
2017-01-26T07:38:19.649Z,20
2017-01-26T07:39:19.624Z,20
2017-01-26T07:40:19.641Z,20
2017-01-26T07:41:19.612Z,25
2017-01-26T07:42:19.669Z,25
2017-01-26T07:43:19.637Z,25
2017-01-26T07:44:19.638Z,25
2017-01-26T07:45:19.609Z,25
2017-01-26T07:46:19.652Z,30
2017-01-26T07:47:19.644Z,30
2017-01-26T07:48:19.608Z,30
2017-01-26T07:49:19.633Z,30
2017-01-26T07:50:19.612Z,30
2017-01-26T07:51:19.700Z,30
2017-01-26T07:52:19.628Z,35
2017-01-26T07:53:19.632Z,35
2017-01-26T07:54:19.668Z,35
2017-01-26T07:55:19.688Z,35
2017-01-26T07:56:19.636Z,35
2017-01-26T07:57:19.652Z,40
2017-01-26T07:58:19.653Z,40
2017-01-26T07:59:19.635Z,40
2017-01-26T08:00:19.621Z,40
2017-01-26T08:01:19.641Z,40
2017-01-26T08:02:19.649Z,40
2017-01-26T08:03:19.640Z,45
2017-01-26T08:04:19.662Z,45
2017-01-26T08:05:19.641Z,45
2017-01-26T08:06:19.636Z,45
2017-01-26T08:07:19.698Z,45
2017-01-26T08:08:19.631Z,45
2017-01-26T08:09:19.708Z,50
2017-01-26T08:10:19.756Z,50
2017-01-26T08:11:19.640Z,50
2017-01-26T08:12:19.649Z,50
2017-01-26T08:13:19.637Z,50
2017-01-26T08:14:19.669Z,50
2017-01-26T08:15:19.624Z,50
2017-01-26T08:16:22.240Z,55
2017-01-26T08:17:19.838Z,55
2017-01-26T08:18:19.658Z,55
2017-01-26T08:19:19.700Z,55
2017-01-26T08:20:20.299Z,55
2017-01-26T08:21:19.794Z,55
2017-01-26T08:22:19.820Z,55
2017-01-26T08:23:19.751Z,60
2017-01-26T08:24:20.796Z,60
2017-01-26T08:25:19.911Z,60
2017-01-26T08:26:19.769Z,60
2017-01-26T08:27:19.774Z,60
2017-01-26T08:28:20.459Z,60
2017-01-26T08:29:19.674Z,60
2017-01-26T08:30:19.893Z,65
2017-01-26T08:31:19.670Z,65
2017-01-26T08:32:19.748Z,65
2017-01-26T08:33:19.730Z,65
2017-01-26T08:34:21.694Z,65
2017-01-26T08:35:21.076Z,65
2017-01-26T08:36:19.697Z,65
2017-01-26T08:37:19.670Z,65
2017-01-26T08:38:22.354Z,65
2017-01-26T08:39:19.837Z,70
2017-01-26T08:40:19.939Z,70
2017-01-26T08:41:19.762Z,70
2017-01-26T08:42:19.776Z,70
2017-01-26T08:43:19.780Z,70
2017-01-26T08:44:19.726Z,70
2017-01-26T08:45:19.779Z,70
2017-01-26T08:46:19.798Z,70
2017-01-26T08:47:19.747Z,70
2017-01-26T08:48:20.767Z,75
2017-01-26T08:49:19.722Z,75
2017-01-26T08:50:19.751Z,75
2017-01-26T08:51:19.699Z,75
2017-01-26T08:52:19.701Z,75
2017-01-26T08:53:19.723Z,75
2017-01-26T08:54:19.772Z,75
2017-01-26T08:55:19.743Z,75
2017-01-26T08:56:19.908Z,75
2017-01-26T08:57:19.917Z,75
2017-01-26T08:58:19.876Z,75
2017-01-26T08:59:19.797Z,75
2017-01-26T09:00:19.811Z,75
2017-01-26T09:01:19.854Z,80
2017-01-26T09:02:19.771Z,80
2017-01-26T09:03:19.695Z,80
2017-01-26T09:04:19.692Z,80
2017-01-26T09:05:19.659Z,80
2017-01-26T09:06:19.715Z,80
2017-01-26T09:07:19.647Z,75
2017-01-26T09:08:19.710Z,75
2017-01-26T09:09:19.687Z,75
2017-01-26T09:10:19.727Z,75
2017-01-26T09:11:19.765Z,80
2017-01-26T09:12:19.709Z,80
2017-01-26T09:13:19.691Z,80
2017-01-26T09:14:20.377Z,80
2017-01-26T09:15:19.730Z,80
2017-01-26T09:16:19.932Z,80
2017-01-26T09:17:19.714Z,80
2017-01-26T09:18:19.723Z,80
2017-01-26T09:19:19.693Z,80
2017-01-26T09:20:19.710Z,80
2017-01-26T09:21:20.001Z,80
2017-01-26T09:22:19.700Z,85
2017-01-26T09:23:19.729Z,85
2017-01-26T09:24:19.700Z,85
2017-01-26T09:25:19.711Z,85
2017-01-26T09:26:19.686Z,85
2017-01-26T09:27:19.695Z,85
2017-01-26T09:28:19.750Z,90
2017-01-26T09:29:19.696Z,90
2017-01-26T09:30:19.645Z,95
2017-01-26T09:31:19.724Z,95
2017-01-26T09:32:19.651Z,95
2017-01-26T09:33:19.661Z,95
2017-01-26T09:34:19.659Z,95
2017-01-26T09:35:19.710Z,95
2017-01-26T09:36:19.714Z,95
2017-01-26T09:37:19.646Z,95
2017-01-26T09:38:19.695Z,95
2017-01-26T09:39:19.676Z,95
2017-01-26T09:40:19.657Z,95
2017-01-26T09:41:19.654Z,95
2017-01-26T09:42:19.709Z,100
2017-01-26T09:43:19.658Z,100
2017-01-26T09:44:19.666Z,100
2017-01-26T09:45:19.656Z,100
2017-01-26T09:46:19.683Z,100
2017-01-26T09:47:19.646Z,100
2017-01-26T09:48:19.673Z,100
2017-01-26T09:49:19.703Z,100
2017-01-26T09:50:19.716Z,100
2017-01-26T09:51:19.681Z,100
2017-01-26T09:52:19.671Z,100
2017-01-26T09:53:19.676Z,100
2017-01-26T09:54:19.670Z,100
2017-01-26T09:55:19.695Z,100
2017-01-26T09:56:19.659Z,100
2017-01-26T09:57:19.675Z,100
2017-01-26T09:58:19.697Z,100
2017-01-26T09:59:19.690Z,100
2017-01-26T10:00:19.696Z,100
2017-01-26T10:01:19.696Z,100
2017-01-26T10:02:19.711Z,100
2017-01-26T10:03:19.704Z,100
2017-01-26T10:04:19.661Z,100
2017-01-26T10:05:19.688Z,100
2017-01-26T10:06:19.708Z,100
2017-01-26T10:07:19.672Z,100
2017-01-26T10:08:19.709Z,105
2017-01-26T10:09:19.681Z,100
2017-01-26T10:10:19.667Z,100
2017-01-26T10:11:19.661Z,105
2017-01-26T10:12:19.679Z,105
2017-01-26T10:13:19.701Z,105
2017-01-26T10:14:19.748Z,105
2017-01-26T10:15:19.711Z,105
2017-01-26T10:16:19.715Z,105
2017-01-26T10:17:19.686Z,105
2017-01-26T10:18:19.722Z,105
2017-01-26T10:19:19.667Z,105
2017-01-26T10:20:19.670Z,105
2017-01-26T10:21:19.730Z,105
2017-01-26T10:22:19.780Z,105
2017-01-26T10:23:19.690Z,105
2017-01-26T10:24:19.801Z,105
2017-01-26T10:25:19.691Z,105
2017-01-26T10:26:19.755Z,105
2017-01-26T10:27:19.705Z,105
2017-01-26T10:28:19.795Z,105
2017-01-26T10:29:19.844Z,105
2017-01-26T10:30:19.745Z,105
2017-01-26T10:31:19.743Z,105
2017-01-26T10:32:19.713Z,105
2017-01-26T10:33:19.683Z,105
2017-01-26T10:34:19.734Z,105
2017-01-26T10:35:19.739Z,105
2017-01-26T10:36:19.776Z,105
2017-01-26T10:37:19.726Z,105
2017-01-26T10:38:19.698Z,105
2017-01-26T10:39:20.016Z,105
2017-01-26T10:40:19.705Z,105
2017-01-26T10:41:19.761Z,105
2017-01-26T10:42:19.697Z,110
2017-01-26T10:43:19.706Z,105
2017-01-26T10:44:19.796Z,110
2017-01-26T10:45:19.697Z,110
2017-01-26T10:46:19.809Z,110
2017-01-26T10:47:19.705Z,110
2017-01-26T10:48:19.760Z,110
2017-01-26T10:49:19.763Z,110
2017-01-26T10:50:19.725Z,110
2017-01-26T10:51:19.762Z,110
2017-01-26T10:52:19.707Z,110
2017-01-26T10:53:19.706Z,110
2017-01-26T10:54:19.736Z,110
2017-01-26T10:55:19.760Z,110
2017-01-26T10:56:19.715Z,110
2017-01-26T10:57:19.729Z,105
2017-01-26T10:58:19.698Z,110
2017-01-26T10:59:19.769Z,105
2017-01-26T11:00:19.703Z,105
2017-01-26T11:01:19.704Z,105
2017-01-26T11:02:19.748Z,105
2017-01-26T11:03:19.723Z,110
2017-01-26T11:04:19.736Z,105
2017-01-26T11:05:19.818Z,105
2017-01-26T11:06:20.204Z,105
2017-01-26T11:07:19.724Z,105
2017-01-26T11:08:19.715Z,105
2017-01-26T11:09:19.720Z,105
2017-01-26T11:10:19.707Z,105
2017-01-26T11:11:19.783Z,105
2017-01-26T11:12:19.789Z,105
2017-01-26T11:13:19.736Z,105
2017-01-26T11:14:19.808Z,105
2017-01-26T11:15:19.746Z,105
2017-01-26T11:16:19.851Z,105
2017-01-26T11:17:19.729Z,105
2017-01-26T11:18:19.818Z,105
2017-01-26T11:19:19.803Z,105
2017-01-26T11:20:19.789Z,105
2017-01-26T11:21:19.759Z,105
2017-01-26T11:22:19.741Z,110
2017-01-26T11:23:19.764Z,105
2017-01-26T11:24:19.809Z,110
2017-01-26T11:25:19.752Z,110
2017-01-26T11:26:19.761Z,110
2017-01-26T11:27:19.754Z,105
2017-01-26T11:28:19.771Z,110
2017-01-26T11:29:20.342Z,110
2017-01-26T11:34:37.330Z,110
2017-01-26T11:34:47.469Z,110
2017-01-26T11:35:47.402Z,110
2017-01-26T11:36:47.390Z,110
2017-01-26T11:37:47.419Z,110
2017-01-26T11:38:50.929Z,110
2017-01-26T11:39:47.435Z,110
2017-01-26T11:40:47.458Z,110
2017-01-26T11:41:47.488Z,110
2017-01-26T11:42:47.403Z,110
2017-01-26T11:43:47.477Z,110
2017-01-26T11:44:47.459Z,110
2017-01-26T11:45:47.372Z,110
2017-01-26T11:46:47.431Z,110
2017-01-26T11:47:47.354Z,110
2017-01-26T11:48:47.359Z,110
2017-01-26T11:49:47.366Z,110
2017-01-26T11:50:47.360Z,110
2017-01-26T11:51:47.387Z,110
2017-01-26T11:52:47.359Z,110
2017-01-26T11:53:47.397Z,110
2017-01-26T11:54:47.449Z,110
2017-01-26T11:55:47.447Z,110
2017-01-26T11:56:47.487Z,110
2017-01-26T11:57:47.393Z,110
2017-01-26T11:58:47.438Z,110
2017-01-26T11:59:47.406Z,110
2017-01-26T12:00:47.382Z,110
2017-01-26T12:01:47.356Z,110
2017-01-26T12:02:47.436Z,110
2017-01-26T12:03:47.386Z,110
2017-01-26T12:04:47.417Z,110
2017-01-26T12:05:47.429Z,110
2017-01-26T12:06:47.393Z,110
2017-01-26T12:07:47.382Z,110
2017-01-26T12:08:47.375Z,110
2017-01-26T12:09:47.355Z,110
2017-01-26T12:10:47.403Z,110
2017-01-26T12:11:47.372Z,110
2017-01-26T12:12:47.424Z,110
2017-01-26T12:13:47.372Z,110
2017-01-26T12:14:47.369Z,110
2017-01-26T12:15:47.406Z,110
2017-01-26T12:16:47.441Z,110
2017-01-26T12:17:47.383Z,110
2017-01-26T12:18:47.450Z,110
2017-01-26T12:19:47.398Z,110
2017-01-26T12:20:47.367Z,110
2017-01-26T12:21:47.361Z,110
2017-01-26T12:22:47.402Z,110
2017-01-26T12:23:47.367Z,110
2017-01-26T12:24:47.380Z,110
2017-01-26T12:25:47.825Z,110
2017-01-26T12:26:47.388Z,110
2017-01-26T12:27:47.381Z,110
2017-01-26T12:28:47.406Z,110
2017-01-26T12:29:47.371Z,110
2017-01-26T12:30:47.401Z,110
2017-01-26T12:31:47.488Z,110
2017-01-26T12:32:47.435Z,110
2017-01-26T12:33:47.413Z,110
2017-01-26T12:34:47.759Z,105
2017-01-26T12:35:47.508Z,110
2017-01-26T12:36:47.417Z,105
2017-01-26T12:37:47.465Z,105
2017-01-26T12:38:47.529Z,105
2017-01-26T12:39:47.450Z,105
2017-01-26T12:40:47.445Z,105
2017-01-26T12:41:47.460Z,105
2017-01-26T12:42:47.461Z,105
2017-01-26T12:43:47.425Z,105
2017-01-26T12:44:47.643Z,105
2017-01-26T12:45:47.420Z,105
2017-01-26T12:46:47.383Z,105
2017-01-26T12:47:47.531Z,105
2017-01-26T12:48:47.473Z,105
2017-01-26T12:49:48.104Z,105
2017-01-26T12:50:47.451Z,105
2017-01-26T12:51:47.541Z,105
2017-01-26T12:52:47.552Z,105
2017-01-26T12:53:47.498Z,105
2017-01-26T12:54:47.422Z,105
2017-01-26T12:55:47.386Z,105
2017-01-26T12:56:47.383Z,105
2017-01-26T12:57:48.434Z,105
2017-01-26T12:58:47.652Z,105
2017-01-26T12:59:47.391Z,105
2017-01-26T13:00:47.390Z,105
2017-01-26T13:01:47.416Z,105
2017-01-26T13:02:47.417Z,105
2017-01-26T13:03:47.530Z,105
2017-01-26T13:04:47.450Z,105
2017-01-26T13:05:47.442Z,105
2017-01-26T13:06:47.430Z,105
2017-01-26T13:07:47.441Z,105
2017-01-26T13:08:47.390Z,105
2017-01-26T13:09:47.444Z,105
2017-01-26T13:10:47.422Z,110
2017-01-26T13:11:47.548Z,105
2017-01-26T13:12:47.452Z,105
2017-01-26T13:13:47.432Z,100
2017-01-26T13:14:47.429Z,105
2017-01-26T13:15:47.467Z,100
2017-01-26T13:16:47.716Z,100
2017-01-26T13:17:47.510Z,100
2017-01-26T13:18:47.391Z,100
2017-01-26T13:19:47.464Z,100
2017-01-26T13:20:47.468Z,100
2017-01-26T13:21:47.459Z,100
2017-01-26T13:22:47.489Z,100
2017-01-26T13:23:47.438Z,100
2017-01-26T13:24:47.419Z,105
2017-01-26T13:25:47.515Z,100
2017-01-26T13:27:47.528Z,100
2017-01-26T13:28:47.446Z,100
2017-01-26T13:29:47.473Z,100
2017-01-26T13:30:47.582Z,100
2017-01-26T13:31:47.457Z,100
2017-01-26T13:32:47.492Z,100
2017-01-26T13:33:47.463Z,100
2017-01-26T13:34:47.668Z,100
2017-01-26T13:35:47.543Z,95
2017-01-26T13:36:47.791Z,95
2017-01-26T13:37:47.712Z,95
2017-01-26T13:38:47.519Z,95
2017-01-26T13:39:47.575Z,95
2017-01-26T13:40:47.448Z,95
2017-01-26T13:41:47.498Z,95
2017-01-26T13:42:47.448Z,95
2017-01-26T13:43:47.565Z,95
2017-01-26T13:44:47.694Z,95
2017-01-26T13:45:47.501Z,95
2017-01-26T13:46:47.541Z,95
2017-01-26T13:47:47.556Z,95
2017-01-26T13:48:47.481Z,95
2017-01-26T13:49:48.167Z,95
2017-01-26T13:50:47.705Z,95
2017-01-26T13:51:47.447Z,95
2017-01-26T13:52:47.485Z,95
2017-01-26T13:53:47.517Z,95
2017-01-26T13:54:47.536Z,95
2017-01-26T13:55:47.484Z,95
2017-01-26T13:56:47.658Z,95
2017-01-26T13:57:48.409Z,95
2017-01-26T13:58:47.490Z,95
2017-01-26T13:59:47.661Z,95
2017-01-26T14:00:47.631Z,95
2017-01-26T14:01:47.653Z,95
2017-01-26T14:02:47.437Z,90
2017-01-26T14:03:47.824Z,95
2017-01-26T14:04:48.044Z,95
2017-01-26T14:05:47.492Z,95
2017-01-26T14:06:47.743Z,95
2017-01-26T14:07:47.521Z,90
2017-01-26T14:08:47.593Z,95
2017-01-26T14:09:47.609Z,95
2017-01-26T14:10:47.961Z,90
2017-01-26T14:11:47.422Z,90
2017-01-26T14:12:48.116Z,90
2017-01-26T14:13:47.518Z,90
2017-01-26T14:14:50.221Z,90
2017-01-26T14:15:48.277Z,90
2017-01-26T14:16:48.772Z,90
2017-01-26T14:17:47.656Z,90
2017-01-26T14:18:48.672Z,90
2017-01-26T14:19:48.523Z,90
2017-01-26T14:20:49.166Z,90
2017-01-26T14:21:48.325Z,90
2017-01-26T14:22:47.546Z,90
2017-01-26T14:23:47.944Z,90
2017-01-26T14:24:50.055Z,90
2017-01-26T14:25:47.883Z,85
2017-01-26T14:26:47.485Z,85
2017-01-26T14:27:47.535Z,85
2017-01-26T14:28:47.803Z,85
2017-01-26T14:29:47.685Z,85
2017-01-26T14:30:47.825Z,85
2017-01-26T14:31:47.745Z,85
2017-01-26T14:32:47.628Z,85
2017-01-26T14:33:47.709Z,85
2017-01-26T14:34:47.486Z,85
2017-01-26T14:35:47.549Z,80